Etusivu
METAR-TAF:

METAR-TAF

Lentoasemat :

Fort Huachuca / Sierra Vista, Arizona, Yhdysvallat

Leveyspiiri: 31-35N, Pituuspiiri: 110-20W, korkeus merenpinnasta: 1438 m

Tämänhetkinen sää

Tämä raportti tehtiin 26 minuuttia sitten, kello 12.58 UTC
tyyntä
Lämpötila 6°C
Kosteus 81%
Ilmanpaine 1019 hPa
Näkyvyys: 16.1 km
selkeää

METAR: KFHU 251258Z AUTO 00000KT 10SM CLR 06/03 A3009 RMK AO2 SLP156 T00640026

Aika: 06:24 (13:24 UTC)

Sääennuste

Tämä raportti tehtiin 11 tuntia ja 18 minuuttia sitten, kello 02.06 UTC
Ennuste voimassa 25. päivästä klo 02 UTC - 26. päivään klo 08 UTC
Tuuli 6 kn eri suunnista
Näkyvyys: 2710 m
Muutamia pilviä 27000 ft:n korkeudessa

TAF: KFHU 250206Z 2502/2608 VRB06KT 9999 FEW270 QNH3003INS TX19/2522Z TN04/2514Z LAST NO AMDS AFT 2502 NEXT 2710

Säähavainnot ja -ennusteet yli 4000 lentoasemalta (METAR- ja TAF-raportit).

Käytössä olevat sääasemat on merkitty karttaan keltaisilla ja punaisilla pisteillä.

Aseta hiiri pisteen päälle nähdäksesi sääaseman nimen.

Klikkaa sitten nähdäksesi säähavainnot ja -ennusteet.

Kartan vaihtaminen: klikkaa mustalla rastilla varustettuja vihreitä pisteitä, niin voit zoomata sisään; viivalla varustettua vihreää pistettä, niin voit zoomata ulos tai vihreitä nuolia, niin pääset viereisille kartoille.


METAR-TAF: